sensor_id;sensor_type;location;lat;lon;timestamp;pressure;altitude;pressure_sealevel;temperature;humidity
6208;BME280;3137;51.550;7.060;2022-12-18T00:02:10;102528.38;;;-8.57;84.71
6208;BME280;3137;51.550;7.060;2022-12-18T00:04:37;102527.69;;;-8.53;85.06
6208;BME280;3137;51.550;7.060;2022-12-18T00:07:03;102538.91;;;-8.54;84.68
6208;BME280;3137;51.550;7.060;2022-12-18T00:09:30;102540.50;;;-8.58;85.17
6208;BME280;3137;51.550;7.060;2022-12-18T00:12:06;102542.22;;;-8.58;84.82
6208;BME280;3137;51.550;7.060;2022-12-18T00:14:44;102543.00;;;-8.61;85.02
6208;BME280;3137;51.550;7.060;2022-12-18T00:17:10;102545.69;;;-8.58;84.61
6208;BME280;3137;51.550;7.060;2022-12-18T00:19:37;102539.63;;;-8.58;84.62
6208;BME280;3137;51.550;7.060;2022-12-18T00:22:03;102539.44;;;-8.63;84.29
6208;BME280;3137;51.550;7.060;2022-12-18T00:24:29;102527.97;;;-8.69;84.66
6208;BME280;3137;51.550;7.060;2022-12-18T00:26:56;102523.78;;;-8.66;84.17
6208;BME280;3137;51.550;7.060;2022-12-18T00:29:22;102527.34;;;-8.86;84.04
6208;BME280;3137;51.550;7.060;2022-12-18T00:31:49;102520.88;;;-8.97;84.49
6208;BME280;3137;51.550;7.060;2022-12-18T00:34:15;102516.56;;;-8.97;84.76
6208;BME280;3137;51.550;7.060;2022-12-18T00:36:42;102528.78;;;-8.94;84.48
6208;BME280;3137;51.550;7.060;2022-12-18T00:39:10;102523.75;;;-8.90;84.58
6208;BME280;3137;51.550;7.060;2022-12-18T00:41:36;102524.56;;;-8.91;84.28
6208;BME280;3137;51.550;7.060;2022-12-18T00:44:21;102523.69;;;-8.91;84.49
6208;BME280;3137;51.550;7.060;2022-12-18T00:46:48;102526.50;;;-9.09;84.79
6208;BME280;3137;51.550;7.060;2022-12-18T00:49:16;102535.84;;;-9.13;85.00
6208;BME280;3137;51.550;7.060;2022-12-18T00:51:45;102529.09;;;-9.09;85.48
6208;BME280;3137;51.550;7.060;2022-12-18T00:54:11;102538.09;;;-9.00;85.26
6208;BME280;3137;51.550;7.060;2022-12-18T00:56:38;102534.91;;;-8.92;85.69
6208;BME280;3137;51.550;7.060;2022-12-18T00:59:14;102534.19;;;-8.88;85.00
6208;BME280;3137;51.550;7.060;2022-12-18T01:01:40;102515.03;;;-8.92;84.79
6208;BME280;3137;51.550;7.060;2022-12-18T01:04:07;102520.16;;;-8.93;84.64
6208;BME280;3137;51.550;7.060;2022-12-18T01:06:33;102520.31;;;-8.89;84.29
6208;BME280;3137;51.550;7.060;2022-12-18T01:09:00;102530.84;;;-9.08;84.70
6208;BME280;3137;51.550;7.060;2022-12-18T01:11:27;102537.09;;;-9.03;84.98
6208;BME280;3137;51.550;7.060;2022-12-18T01:13:53;102533.22;;;-9.14;85.34
6208;BME280;3137;51.550;7.060;2022-12-18T01:16:21;102531.63;;;-9.11;86.08
6208;BME280;3137;51.550;7.060;2022-12-18T01:18:51;102538.81;;;-9.04;86.06
6208;BME280;3137;51.550;7.060;2022-12-18T01:21:18;102539.94;;;-8.97;85.69
6208;BME280;3137;51.550;7.060;2022-12-18T01:23:45;102532.16;;;-8.97;85.35
6208;BME280;3137;51.550;7.060;2022-12-18T01:26:14;102531.88;;;-9.05;85.18
6208;BME280;3137;51.550;7.060;2022-12-18T01:28:41;102530.97;;;-9.05;85.34
6208;BME280;3137;51.550;7.060;2022-12-18T01:31:22;102533.34;;;-9.11;85.22
6208;BME280;3137;51.550;7.060;2022-12-18T01:33:50;102528.19;;;-9.10;85.21
6208;BME280;3137;51.550;7.060;2022-12-18T01:38:44;102527.44;;;-9.07;85.31
6208;BME280;3137;51.550;7.060;2022-12-18T01:41:12;102515.28;;;-9.08;84.95
6208;BME280;3137;51.550;7.060;2022-12-18T01:43:52;102514.50;;;-9.06;84.96
6208;BME280;3137;51.550;7.060;2022-12-18T01:46:21;102514.50;;;-9.06;85.41
6208;BME280;3137;51.550;7.060;2022-12-18T01:49:00;102517.97;;;-9.05;85.25
6208;BME280;3137;51.550;7.060;2022-12-18T01:51:29;102523.47;;;-8.97;84.89
6208;BME280;3137;51.550;7.060;2022-12-18T01:53:57;102524.00;;;-9.06;84.73
6208;BME280;3137;51.550;7.060;2022-12-18T01:56:25;102514.06;;;-9.18;84.95
6208;BME280;3137;51.550;7.060;2022-12-18T01:58:56;102510.03;;;-9.10;84.91
6208;BME280;3137;51.550;7.060;2022-12-18T02:01:26;102508.16;;;-9.14;84.63
6208;BME280;3137;51.550;7.060;2022-12-18T02:03:53;102505.28;;;-9.22;84.61
6208;BME280;3137;51.550;7.060;2022-12-18T02:06:32;102506.03;;;-9.24;84.26
6208;BME280;3137;51.550;7.060;2022-12-18T02:09:15;102497.84;;;-9.35;84.41
6208;BME280;3137;51.550;7.060;2022-12-18T02:14:28;102511.69;;;-9.34;84.56
6208;BME280;3137;51.550;7.060;2022-12-18T02:17:04;102505.63;;;-9.35;84.66
6208;BME280;3137;51.550;7.060;2022-12-18T02:19:58;102509.09;;;-9.34;84.54
6208;BME280;3137;51.550;7.060;2022-12-18T02:23:02;102508.47;;;-9.29;84.55
6208;BME280;3137;51.550;7.060;2022-12-18T02:28:27;102496.50;;;-9.25;84.97
6208;BME280;3137;51.550;7.060;2022-12-18T02:31:01;102501.09;;;-9.18;84.82
6208;BME280;3137;51.550;7.060;2022-12-18T02:33:30;102496.06;;;-9.13;83.97
6208;BME280;3137;51.550;7.060;2022-12-18T02:35:58;102496.06;;;-9.13;84.22
6208;BME280;3137;51.550;7.060;2022-12-18T02:38:27;102499.44;;;-9.16;84.48
6208;BME280;3137;51.550;7.060;2022-12-18T02:40:59;102498.41;;;-9.20;84.20
6208;BME280;3137;51.550;7.060;2022-12-18T02:43:26;102506.19;;;-9.20;84.21
6208;BME280;3137;51.550;7.060;2022-12-18T02:45:57;102504.56;;;-9.17;84.13
6208;BME280;3137;51.550;7.060;2022-12-18T02:48:33;102496.72;;;-9.19;84.24
6208;BME280;3137;51.550;7.060;2022-12-18T02:51:23;102505.16;;;-9.25;84.08
6208;BME280;3137;51.550;7.060;2022-12-18T02:57:34;102510.34;;;-9.25;84.08
6208;BME280;3137;51.550;7.060;2022-12-18T03:02:37;102509.22;;;-9.31;84.10
6208;BME280;3137;51.550;7.060;2022-12-18T03:05:16;102511.69;;;-9.34;83.78
6208;BME280;3137;51.550;7.060;2022-12-18T03:07:51;102504.94;;;-9.31;83.89
6208;BME280;3137;51.550;7.060;2022-12-18T03:10:25;102510.03;;;-9.32;84.18
6208;BME280;3137;51.550;7.060;2022-12-18T03:13:12;102497.50;;;-9.44;84.04
6208;BME280;3137;51.550;7.060;2022-12-18T03:15:46;102505.03;;;-9.50;83.88
6208;BME280;3137;51.550;7.060;2022-12-18T03:18:32;102503.16;;;-9.54;84.68
6208;BME280;3137;51.550;7.060;2022-12-18T03:21:04;102498.25;;;-9.47;83.84
6208;BME280;3137;51.550;7.060;2022-12-18T03:23:38;102497.50;;;-9.44;83.95
6208;BME280;3137;51.550;7.060;2022-12-18T03:26:10;102488.66;;;-9.49;83.80
6208;BME280;3137;51.550;7.060;2022-12-18T03:28:46;102486.91;;;-9.50;84.29
6208;BME280;3137;51.550;7.060;2022-12-18T03:31:15;102479.13;;;-9.50;84.36
6208;BME280;3137;51.550;7.060;2022-12-18T03:33:47;102478.19;;;-9.52;84.31
6208;BME280;3137;51.550;7.060;2022-12-18T03:36:17;102489.53;;;-9.71;84.67
6208;BME280;3137;51.550;7.060;2022-12-18T03:38:44;102484.09;;;-9.77;84.98
6208;BME280;3137;51.550;7.060;2022-12-18T03:41:25;102493.69;;;-9.75;84.86
6208;BME280;3137;51.550;7.060;2022-12-18T03:44:21;102496.66;;;-9.66;85.11
6208;BME280;3137;51.550;7.060;2022-12-18T03:46:59;102489.31;;;-9.55;84.58
6208;BME280;3137;51.550;7.060;2022-12-18T03:49:36;102486.72;;;-9.55;84.57
6208;BME280;3137;51.550;7.060;2022-12-18T03:52:10;102488.53;;;-9.52;84.85
6208;BME280;3137;51.550;7.060;2022-12-18T03:54:41;102495.66;;;-9.47;85.05
6208;BME280;3137;51.550;7.060;2022-12-18T03:57:18;102486.16;;;-9.46;85.27
6208;BME280;3137;51.550;7.060;2022-12-18T03:59:50;102481.16;;;-9.42;84.90
6208;BME280;3137;51.550;7.060;2022-12-18T04:02:22;102487.22;;;-9.41;85.20
6208;BME280;3137;51.550;7.060;2022-12-18T04:04:52;102482.09;;;-9.39;85.04
6208;BME280;3137;51.550;7.060;2022-12-18T04:07:20;102489.78;;;-9.43;84.74
6208;BME280;3137;51.550;7.060;2022-12-18T04:09:48;102487.19;;;-9.43;84.85
6208;BME280;3137;51.550;7.060;2022-12-18T04:12:17;102482.09;;;-9.39;84.70
6208;BME280;3137;51.550;7.060;2022-12-18T04:14:45;102479.25;;;-9.46;84.82
6208;BME280;3137;51.550;7.060;2022-12-18T04:17:12;102479.34;;;-9.44;84.91
6208;BME280;3137;51.550;7.060;2022-12-18T04:19:38;102485.38;;;-9.45;84.77
6208;BME280;3137;51.550;7.060;2022-12-18T04:22:09;102474.09;;;-9.46;85.03
6208;BME280;3137;51.550;7.060;2022-12-18T04:24:41;102465.56;;;-9.43;84.45
6208;BME280;3137;51.550;7.060;2022-12-18T04:27:14;102465.56;;;-9.43;84.49
6208;BME280;3137;51.550;7.060;2022-12-18T04:29:46;102478.03;;;-9.55;84.68
6208;BME280;3137;51.550;7.060;2022-12-18T04:32:13;102479.72;;;-9.57;84.50
6208;BME280;3137;51.550;7.060;2022-12-18T04:34:42;102481.38;;;-9.58;84.91
6208;BME280;3137;51.550;7.060;2022-12-18T04:37:08;102475.25;;;-9.60;84.85
6208;BME280;3137;51.550;7.060;2022-12-18T04:39:35;102473.59;;;-9.58;84.56
6208;BME280;3137;51.550;7.060;2022-12-18T04:42:07;102477.16;;;-9.56;85.02
6208;BME280;3137;51.550;7.060;2022-12-18T04:44:33;102475.22;;;-9.61;84.53
6208;BME280;3137;51.550;7.060;2022-12-18T04:47:00;102473.13;;;-9.70;84.21
6208;BME280;3137;51.550;7.060;2022-12-18T04:49:26;102480.69;;;-9.76;84.16
6208;BME280;3137;51.550;7.060;2022-12-18T04:51:53;102472.72;;;-9.81;85.04
6208;BME280;3137;51.550;7.060;2022-12-18T04:54:20;102470.81;;;-9.85;85.34
6208;BME280;3137;51.550;7.060;2022-12-18T04:56:46;102465.56;;;-9.87;85.34
6208;BME280;3137;51.550;7.060;2022-12-18T04:59:13;102466.59;;;-9.83;84.98
6208;BME280;3137;51.550;7.060;2022-12-18T05:01:39;102469.38;;;-9.78;85.01
6208;BME280;3137;51.550;7.060;2022-12-18T05:04:06;102460.56;;;-9.82;84.42
6208;BME280;3137;51.550;7.060;2022-12-18T05:06:33;102455.66;;;-9.76;84.92
6208;BME280;3137;51.550;7.060;2022-12-18T05:08:59;102447.63;;;-9.82;84.54
6208;BME280;3137;51.550;7.060;2022-12-18T05:11:25;102446.03;;;-9.78;84.63
6208;BME280;3137;51.550;7.060;2022-12-18T05:13:52;102441.66;;;-9.79;84.44
6208;BME280;3137;51.550;7.060;2022-12-18T05:16:18;102444.06;;;-9.84;84.57
6208;BME280;3137;51.550;7.060;2022-12-18T05:18:45;102439.06;;;-9.79;83.99
6208;BME280;3137;51.550;7.060;2022-12-18T05:21:11;102449.69;;;-9.73;84.45
6208;BME280;3137;51.550;7.060;2022-12-18T05:23:37;102442.03;;;-9.70;84.83
6208;BME280;3137;51.550;7.060;2022-12-18T05:26:05;102442.19;;;-9.67;83.92
6208;BME280;3137;51.550;7.060;2022-12-18T05:28:34;102431.66;;;-9.70;84.02
6208;BME280;3137;51.550;7.060;2022-12-18T05:31:02;102437.88;;;-9.67;84.54
6208;BME280;3137;51.550;7.060;2022-12-18T05:33:31;102441.41;;;-9.65;84.09
6208;BME280;3137;51.550;7.060;2022-12-18T05:36:00;102437.97;;;-9.64;84.35
6208;BME280;3137;51.550;7.060;2022-12-18T05:38:27;102447.50;;;-9.63;83.83
6208;BME280;3137;51.550;7.060;2022-12-18T05:40:55;102443.16;;;-9.64;83.99
6208;BME280;3137;51.550;7.060;2022-12-18T05:43:22;102451.81;;;-9.63;84.23
6208;BME280;3137;51.550;7.060;2022-12-18T05:45:50;102452.59;;;-9.66;83.57
6208;BME280;3137;51.550;7.060;2022-12-18T05:48:17;102453.47;;;-9.65;83.95
6208;BME280;3137;51.550;7.060;2022-12-18T05:50:45;102464.56;;;-9.69;83.94
6208;BME280;3137;51.550;7.060;2022-12-18T05:53:13;102466.31;;;-9.68;83.93
6208;BME280;3137;51.550;7.060;2022-12-18T05:55:41;102468.91;;;-9.68;84.24
6208;BME280;3137;51.550;7.060;2022-12-18T05:58:09;102468.91;;;-9.68;84.22
6208;BME280;3137;51.550;7.060;2022-12-18T06:00:37;102459.22;;;-9.72;83.49
6208;BME280;3137;51.550;7.060;2022-12-18T06:03:07;102460.31;;;-9.67;83.30
6208;BME280;3137;51.550;7.060;2022-12-18T06:05:37;102468.53;;;-9.77;83.62
6208;BME280;3137;51.550;7.060;2022-12-18T06:08:04;102470.38;;;-9.75;83.15
6208;BME280;3137;51.550;7.060;2022-12-18T06:10:31;102484.22;;;-9.74;83.45
6208;BME280;3137;51.550;7.060;2022-12-18T06:12:57;102492.69;;;-9.78;83.47
6208;BME280;3137;51.550;7.060;2022-12-18T06:15:23;102494.41;;;-9.79;83.62
6208;BME280;3137;51.550;7.060;2022-12-18T06:17:50;102502.53;;;-9.70;83.73
6208;BME280;3137;51.550;7.060;2022-12-18T06:20:17;102508.38;;;-9.75;83.04
6208;BME280;3137;51.550;7.060;2022-12-18T06:22:43;102514.38;;;-9.76;83.81
6208;BME280;3137;51.550;7.060;2022-12-18T06:25:09;102507.56;;;-9.74;83.86
6208;BME280;3137;51.550;7.060;2022-12-18T06:27:36;102501.34;;;-9.78;83.25
6208;BME280;3137;51.550;7.060;2022-12-18T06:30:03;102508.81;;;-9.86;83.25
6208;BME280;3137;51.550;7.060;2022-12-18T06:32:30;102510.38;;;-9.89;83.49
6208;BME280;3137;51.550;7.060;2022-12-18T06:34:56;102504.41;;;-9.88;83.48
6208;BME280;3137;51.550;7.060;2022-12-18T06:37:23;102503.53;;;-9.89;83.24
6208;BME280;3137;51.550;7.060;2022-12-18T06:39:53;102501.63;;;-9.93;83.03
6208;BME280;3137;51.550;7.060;2022-12-18T06:42:19;102499.53;;;-10.01;83.53
6208;BME280;3137;51.550;7.060;2022-12-18T06:44:45;102498.00;;;-9.96;83.60
6208;BME280;3137;51.550;7.060;2022-12-18T06:47:12;102492.91;;;-9.95;82.95
6208;BME280;3137;51.550;7.060;2022-12-18T06:49:38;102484.25;;;-9.95;83.39
6208;BME280;3137;51.550;7.060;2022-12-18T06:52:04;102477.16;;;-9.99;83.17
6208;BME280;3137;51.550;7.060;2022-12-18T06:54:31;102477.94;;;-10.02;83.27
6208;BME280;3137;51.550;7.060;2022-12-18T06:56:57;102467.75;;;-9.97;83.77
6208;BME280;3137;51.550;7.060;2022-12-18T06:59:23;102469.13;;;-10.06;83.85
6208;BME280;3137;51.550;7.060;2022-12-18T07:01:51;102468.81;;;-10.13;83.67
6208;BME280;3137;51.550;7.060;2022-12-18T07:04:17;102458.28;;;-10.18;83.31
6208;BME280;3137;51.550;7.060;2022-12-18T07:06:44;102467.09;;;-10.13;83.61
6208;BME280;3137;51.550;7.060;2022-12-18T07:09:10;102460.56;;;-10.04;83.08
6208;BME280;3137;51.550;7.060;2022-12-18T07:11:36;102451.31;;;-9.98;83.30
6208;BME280;3137;51.550;7.060;2022-12-18T07:14:03;102455.56;;;-10.00;83.67
6208;BME280;3137;51.550;7.060;2022-12-18T07:16:29;102456.06;;;-10.09;83.51
6208;BME280;3137;51.550;7.060;2022-12-18T07:18:56;102450.69;;;-10.13;83.29
6208;BME280;3137;51.550;7.060;2022-12-18T07:21:23;102454.22;;;-10.11;83.70
6208;BME280;3137;51.550;7.060;2022-12-18T07:23:50;102449.63;;;-10.18;84.13
6208;BME280;3137;51.550;7.060;2022-12-18T07:26:20;102448.25;;;-10.10;84.12
6208;BME280;3137;51.550;7.060;2022-12-18T07:28:46;102445.28;;;-10.19;83.77
6208;BME280;3137;51.550;7.060;2022-12-18T07:31:18;102445.13;;;-10.22;84.00
6208;BME280;3137;51.550;7.060;2022-12-18T07:33:47;102436.94;;;-10.12;84.05
6208;BME280;3137;51.550;7.060;2022-12-18T07:36:13;102433.59;;;-10.10;84.15
6208;BME280;3137;51.550;7.060;2022-12-18T07:38:40;102441.47;;;-10.07;83.92
6208;BME280;3137;51.550;7.060;2022-12-18T07:41:12;102434.88;;;-9.98;84.65
6208;BME280;3137;51.550;7.060;2022-12-18T07:43:39;102441.84;;;-9.97;84.59
6208;BME280;3137;51.550;7.060;2022-12-18T07:46:08;102442.91;;;-9.92;83.99
6208;BME280;3137;51.550;7.060;2022-12-18T07:48:35;102437.03;;;-9.88;84.29
6208;BME280;3137;51.550;7.060;2022-12-18T07:51:04;102438.97;;;-9.82;84.54
6208;BME280;3137;51.550;7.060;2022-12-18T07:53:31;102439.81;;;-9.83;84.10
6208;BME280;3137;51.550;7.060;2022-12-18T07:55:59;102449.88;;;-9.69;84.46
6208;BME280;3137;51.550;7.060;2022-12-18T07:58:46;102453.63;;;-9.60;84.01
6208;BME280;3137;51.550;7.060;2022-12-18T08:01:13;102449.47;;;-9.57;84.00
6208;BME280;3137;51.550;7.060;2022-12-18T08:03:40;102449.50;;;-9.55;84.19
6208;BME280;3137;51.550;7.060;2022-12-18T08:06:09;102447.34;;;-9.45;83.38
6208;BME280;3137;51.550;7.060;2022-12-18T08:08:36;102452.81;;;-9.37;83.93
6208;BME280;3137;51.550;7.060;2022-12-18T08:11:03;102446.97;;;-9.31;84.04
6208;BME280;3137;51.550;7.060;2022-12-18T08:13:29;102455.94;;;-9.23;83.97
6208;BME280;3137;51.550;7.060;2022-12-18T08:18:23;102438.16;;;-9.12;84.38
6208;BME280;3137;51.550;7.060;2022-12-18T08:20:49;102433.13;;;-9.08;83.87
6208;BME280;3137;51.550;7.060;2022-12-18T08:23:15;102433.44;;;-9.00;84.45
6208;BME280;3137;51.550;7.060;2022-12-18T08:25:42;102417.25;;;-8.93;85.11
6208;BME280;3137;51.550;7.060;2022-12-18T08:28:08;102418.47;;;-8.83;84.66
6208;BME280;3137;51.550;7.060;2022-12-18T08:30:35;102408.53;;;-8.69;85.80
6208;BME280;3137;51.550;7.060;2022-12-18T08:33:02;102400.59;;;-8.48;86.71
6208;BME280;3137;51.550;7.060;2022-12-18T08:35:29;102390.06;;;-8.26;87.29
6208;BME280;3137;51.550;7.060;2022-12-18T08:38:02;102388.94;;;-8.05;86.85
6208;BME280;3137;51.550;7.060;2022-12-18T08:40:29;102394.22;;;-7.75;88.64
6208;BME280;3137;51.550;7.060;2022-12-18T08:42:55;102392.34;;;-7.51;87.08
6208;BME280;3137;51.550;7.060;2022-12-18T08:45:40;102385.25;;;-7.26;87.89
6208;BME280;3137;51.550;7.060;2022-12-18T08:48:07;102378.06;;;-7.03;87.44
6208;BME280;3137;51.550;7.060;2022-12-18T08:50:33;102375.03;;;-6.87;88.29
6208;BME280;3137;51.550;7.060;2022-12-18T08:53:00;102379.91;;;-6.66;86.78
6208;BME280;3137;51.550;7.060;2022-12-18T08:55:26;102382.91;;;-6.50;87.76
6208;BME280;3137;51.550;7.060;2022-12-18T08:57:52;102380.66;;;-6.36;88.29
6208;BME280;3137;51.550;7.060;2022-12-18T09:00:19;102378.47;;;-6.19;86.69
6208;BME280;3137;51.550;7.060;2022-12-18T09:02:46;102369.34;;;-6.01;87.20
6208;BME280;3137;51.550;7.060;2022-12-18T09:05:12;102366.09;;;-5.89;87.23
6208;BME280;3137;51.550;7.060;2022-12-18T09:07:39;102380.34;;;-5.73;86.44
6208;BME280;3137;51.550;7.060;2022-12-18T09:10:06;102366.69;;;-5.61;86.80
6208;BME280;3137;51.550;7.060;2022-12-18T09:12:32;102364.28;;;-5.52;86.00
6208;BME280;3137;51.550;7.060;2022-12-18T09:14:58;102361.91;;;-5.40;85.84
6208;BME280;3137;51.550;7.060;2022-12-18T09:17:25;102357.94;;;-5.21;86.10
6208;BME280;3137;51.550;7.060;2022-12-18T09:19:51;102349.47;;;-5.09;85.03
6208;BME280;3137;51.550;7.060;2022-12-18T09:22:17;102351.38;;;-5.00;84.46
6208;BME280;3137;51.550;7.060;2022-12-18T09:24:44;102354.06;;;-4.96;84.86
6208;BME280;3137;51.550;7.060;2022-12-18T09:27:10;102363.81;;;-4.87;84.54
6208;BME280;3137;51.550;7.060;2022-12-18T09:29:36;102360.50;;;-4.77;85.38
6208;BME280;3137;51.550;7.060;2022-12-18T09:32:03;102354.44;;;-4.74;84.30
6208;BME280;3137;51.550;7.060;2022-12-18T09:34:29;102352.03;;;-4.63;83.74
6208;BME280;3137;51.550;7.060;2022-12-18T09:36:56;102348.69;;;-4.55;83.78
6208;BME280;3137;51.550;7.060;2022-12-18T09:39:22;102355.84;;;-4.44;83.44
6208;BME280;3137;51.550;7.060;2022-12-18T09:41:57;102360.34;;;-4.34;83.86
6208;BME280;3137;51.550;7.060;2022-12-18T09:44:29;102356.97;;;-4.27;83.62
6208;BME280;3137;51.550;7.060;2022-12-18T09:47:10;102358.84;;;-4.20;83.04
6208;BME280;3137;51.550;7.060;2022-12-18T09:49:47;102363.41;;;-4.07;82.77
6208;BME280;3137;51.550;7.060;2022-12-18T09:52:19;102358.28;;;-3.99;82.74
6208;BME280;3137;51.550;7.060;2022-12-18T09:55:00;102366.28;;;-3.90;83.14
6208;BME280;3137;51.550;7.060;2022-12-18T09:57:31;102370.81;;;-3.78;83.24
6208;BME280;3137;51.550;7.060;2022-12-18T10:00:06;102370.84;;;-3.75;83.41
6208;BME280;3137;51.550;7.060;2022-12-18T10:02:40;102365.59;;;-3.75;81.83
6208;BME280;3137;51.550;7.060;2022-12-18T10:05:11;102351.78;;;-3.66;81.35
6208;BME280;3137;51.550;7.060;2022-12-18T10:07:59;102340.56;;;-3.54;81.50
6208;BME280;3137;51.550;7.060;2022-12-18T10:10:43;102327.56;;;-3.47;81.35
6208;BME280;3137;51.550;7.060;2022-12-18T10:19:00;102305.25;;;-3.12;81.73
6208;BME280;3137;51.550;7.060;2022-12-18T10:21:33;102308.78;;;-3.07;81.38
6208;BME280;3137;51.550;7.060;2022-12-18T10:24:23;102313.22;;;-3.00;79.96
6208;BME280;3137;51.550;7.060;2022-12-18T10:26:56;102306.28;;;-2.95;80.41
6208;BME280;3137;51.550;7.060;2022-12-18T10:29:25;102304.56;;;-2.91;78.12
6208;BME280;3137;51.550;7.060;2022-12-18T10:31:52;102307.25;;;-2.84;78.24
6208;BME280;3137;51.550;7.060;2022-12-18T10:34:18;102296.00;;;-2.75;77.71
6208;BME280;3137;51.550;7.060;2022-12-18T10:36:47;102288.16;;;-2.69;77.95
6208;BME280;3137;51.550;7.060;2022-12-18T10:39:16;102287.34;;;-2.65;77.97
6208;BME280;3137;51.550;7.060;2022-12-18T10:41:42;102280.41;;;-2.55;77.45
6208;BME280;3137;51.550;7.060;2022-12-18T10:44:23;102276.94;;;-2.49;77.55
6208;BME280;3137;51.550;7.060;2022-12-18T10:46:53;102275.25;;;-2.43;77.12
6208;BME280;3137;51.550;7.060;2022-12-18T10:49:27;102280.56;;;-2.30;76.38
6208;BME280;3137;51.550;7.060;2022-12-18T10:52:17;102269.25;;;-2.26;76.95
6208;BME280;3137;51.550;7.060;2022-12-18T10:55:02;102272.78;;;-2.18;75.72
6208;BME280;3137;51.550;7.060;2022-12-18T10:57:32;102271.06;;;-2.11;75.19
6208;BME280;3137;51.550;7.060;2022-12-18T11:00:20;102257.97;;;-2.07;75.71
6208;BME280;3137;51.550;7.060;2022-12-18T11:02:47;102258.06;;;-1.91;75.39
6208;BME280;3137;51.550;7.060;2022-12-18T11:05:30;102248.47;;;-1.86;75.67
6208;BME280;3137;51.550;7.060;2022-12-18T11:07:57;102250.19;;;-1.85;75.39
6208;BME280;3137;51.550;7.060;2022-12-18T11:10:32;102241.44;;;-1.87;75.70
6208;BME280;3137;51.550;7.060;2022-12-18T11:13:29;102234.47;;;-1.81;74.44
6208;BME280;3137;51.550;7.060;2022-12-18T11:15:56;102240.63;;;-1.77;75.01
6208;BME280;3137;51.550;7.060;2022-12-18T11:18:29;102242.38;;;-1.76;74.16
6208;BME280;3137;51.550;7.060;2022-12-18T11:21:05;102238.91;;;-1.64;73.32
6208;BME280;3137;51.550;7.060;2022-12-18T11:23:33;102230.16;;;-1.65;73.32
6208;BME280;3137;51.550;7.060;2022-12-18T11:26:04;102231.03;;;-1.61;73.01
6208;BME280;3137;51.550;7.060;2022-12-18T11:28:37;102223.16;;;-1.57;72.98
6208;BME280;3137;51.550;7.060;2022-12-18T11:31:14;102223.19;;;-1.47;72.93
6208;BME280;3137;51.550;7.060;2022-12-18T11:33:54;102223.22;;;-1.38;72.70
6208;BME280;3137;51.550;7.060;2022-12-18T11:36:44;102208.31;;;-1.38;73.07
6208;BME280;3137;51.550;7.060;2022-12-18T11:42:12;102195.19;;;-1.38;72.67
6208;BME280;3137;51.550;7.060;2022-12-18T11:44:46;102190.78;;;-1.34;72.79
6208;BME280;3137;51.550;7.060;2022-12-18T11:50:12;102180.31;;;-1.28;73.09
6208;BME280;3137;51.550;7.060;2022-12-18T11:52:41;102177.69;;;-1.26;73.21
6208;BME280;3137;51.550;7.060;2022-12-18T12:04:02;102174.19;;;-1.07;73.61
6208;BME280;3137;51.550;7.060;2022-12-18T12:06:51;102174.16;;;-1.01;72.95
6208;BME280;3137;51.550;7.060;2022-12-18T12:09:41;102164.53;;;-1.02;73.20
6208;BME280;3137;51.550;7.060;2022-12-18T12:12:23;102160.16;;;-1.03;73.00
6208;BME280;3137;51.550;7.060;2022-12-18T12:15:01;102164.53;;;-0.99;72.75
6208;BME280;3137;51.550;7.060;2022-12-18T12:18:01;102170.66;;;-0.94;73.25
6208;BME280;3137;51.550;7.060;2022-12-18T12:23:22;102162.75;;;-0.89;72.48
6208;BME280;3137;51.550;7.060;2022-12-18T12:26:02;102157.53;;;-0.91;71.81
6208;BME280;3137;51.550;7.060;2022-12-18T12:31:33;102147.88;;;-0.81;71.85
6208;BME280;3137;51.550;7.060;2022-12-18T12:34:33;102152.22;;;-0.72;71.58
6208;BME280;3137;51.550;7.060;2022-12-18T12:37:21;102146.97;;;-0.75;71.77
6208;BME280;3137;51.550;7.060;2022-12-18T12:39:50;102142.59;;;-0.72;71.09
6208;BME280;3137;51.550;7.060;2022-12-18T12:42:32;102139.06;;;-0.65;71.12
6208;BME280;3137;51.550;7.060;2022-12-18T12:45:28;102131.19;;;-0.71;70.93
6208;BME280;3137;51.550;7.060;2022-12-18T12:47:58;102123.25;;;-0.63;69.92
6208;BME280;3137;51.550;7.060;2022-12-18T12:50:25;102132.91;;;-0.63;71.33
6208;BME280;3137;51.550;7.060;2022-12-18T12:52:55;102123.25;;;-0.58;71.25
6208;BME280;3137;51.550;7.060;2022-12-18T12:55:25;102121.50;;;-0.61;71.20
6208;BME280;3137;51.550;7.060;2022-12-18T12:58:14;102133.81;;;-0.71;72.10
6208;BME280;3137;51.550;7.060;2022-12-18T13:01:08;102118.91;;;-0.70;71.48
6208;BME280;3137;51.550;7.060;2022-12-18T13:03:48;102124.16;;;-0.64;71.53
6208;BME280;3137;51.550;7.060;2022-12-18T13:06:57;102112.75;;;-0.65;71.16
6208;BME280;3137;51.550;7.060;2022-12-18T13:09:30;102114.50;;;-0.63;71.40
6208;BME280;3137;51.550;7.060;2022-12-18T13:12:03;102110.97;;;-0.58;70.77
6208;BME280;3137;51.550;7.060;2022-12-18T13:14:49;102116.25;;;-0.62;72.01
6208;BME280;3137;51.550;7.060;2022-12-18T13:19:50;102104.84;;;-0.61;71.55
6208;BME280;3137;51.550;7.060;2022-12-18T13:22:27;102107.50;;;-0.65;71.74
6208;BME280;3137;51.550;7.060;2022-12-18T13:24:55;102104.00;;;-0.67;71.23
6208;BME280;3137;51.550;7.060;2022-12-18T13:38:33;102097.81;;;-0.55;72.28
6208;BME280;3137;51.550;7.060;2022-12-18T13:41:24;102098.72;;;-0.63;72.12
6208;BME280;3137;51.550;7.060;2022-12-18T13:43:51;102096.09;;;-0.62;72.34
6208;BME280;3137;51.550;7.060;2022-12-18T13:46:26;102089.09;;;-0.71;73.69
6208;BME280;3137;51.550;7.060;2022-12-18T13:51:43;102076.81;;;-0.70;72.76
6208;BME280;3137;51.550;7.060;2022-12-18T13:54:30;102074.16;;;-0.66;72.93
6208;BME280;3137;51.550;7.060;2022-12-18T13:56:59;102074.13;;;-0.56;71.90
6208;BME280;3137;51.550;7.060;2022-12-18T13:59:36;102063.59;;;-0.52;72.42
6208;BME280;3137;51.550;7.060;2022-12-18T14:02:13;102061.84;;;-0.50;71.96
6208;BME280;3137;51.550;7.060;2022-12-18T14:04:41;102054.81;;;-0.49;72.74
6208;BME280;3137;51.550;7.060;2022-12-18T14:07:13;102052.16;;;-0.46;71.48
6208;BME280;3137;51.550;7.060;2022-12-18T14:09:43;102043.34;;;-0.36;70.75
6208;BME280;3137;51.550;7.060;2022-12-18T14:12:23;102039.84;;;-0.39;70.88
6208;BME280;3137;51.550;7.060;2022-12-18T14:18:03;102032.81;;;-0.33;69.79
6208;BME280;3137;51.550;7.060;2022-12-18T14:20:36;102031.00;;;-0.29;68.71
6208;BME280;3137;51.550;7.060;2022-12-18T14:23:25;102025.72;;;-0.22;68.24
6208;BME280;3137;51.550;7.060;2022-12-18T14:25:52;102014.31;;;-0.19;67.49
6208;BME280;3137;51.550;7.060;2022-12-18T14:28:19;102010.75;;;-0.15;67.14
6208;BME280;3137;51.550;7.060;2022-12-18T14:30:48;102011.59;;;-0.10;66.49
6208;BME280;3137;51.550;7.060;2022-12-18T14:33:18;102016.84;;;-0.10;66.78
6208;BME280;3137;51.550;7.060;2022-12-18T14:36:00;102008.91;;;-0.04;65.56